Time;durP1;ratioP1;P1;durP2;ratioP2;P2;SDS_P1;SDS_P2;PMS_P1;PMS_P2;Temp;Humidity;BMP_temperature;BMP_pressure;BME280_temperature;BME280_humidity;BME280_pressure;Samples;Min_cycle;Max_cycle;Signal;HPM_P1;HPM_P2
2022/05/31 00:01:54;;;;;;;10.30;7.20;;;;;;;;;;5015061;28;21653;-76
2022/05/31 00:04:22;;;;;;;8.80;7.90;;;;;;;;;;5018158;28;20439;-79
2022/05/31 00:06:49;;;;;;;8.33;6.20;;;;;;;;;;5022797;28;21084;-79
2022/05/31 00:09:16;;;;;;;9.77;7.30;;;;;;;;;;5031277;28;20438;-77
2022/05/31 00:11:44;;;;;;;7.10;6.30;;;;;;;;;;5031210;28;20799;-77
2022/05/31 00:14:13;;;;;;;7.60;6.90;;;;;;;;;;5031402;28;20446;-78
2022/05/31 00:16:40;;;;;;;8.80;6.87;;;;;;;;;;5013856;28;20490;-75
2022/05/31 00:19:07;;;;;;;8.10;6.40;;;;;;;;;;5020076;28;20941;-76
2022/05/31 00:21:39;;;;;;;7.90;7.00;;;;;;;;;;5013140;28;20489;-74
2022/05/31 00:24:07;;;;;;;7.17;6.53;;;;;;;;;;4995375;28;20448;-79
2022/05/31 00:26:35;;;;;;;7.07;6.33;;;;;;;;;;4992937;28;20463;-76
2022/05/31 00:29:03;;;;;;;8.97;6.97;;;;;;;;;;5016891;28;20446;-74
2022/05/31 00:31:30;;;;;;;10.13;6.93;;;;;;;;;;5011936;28;20446;-75
2022/05/31 00:33:58;;;;;;;7.87;6.37;;;;;;;;;;5010157;28;20439;-79
2022/05/31 00:36:25;;;;;;;8.10;6.53;;;;;;;;;;5011166;28;20490;-77
2022/05/31 00:38:52;;;;;;;6.90;5.80;;;;;;;;;;5011328;28;20447;-79
2022/05/31 00:41:26;;;;;;;9.80;6.73;;;;;;;;;;5011264;28;20466;-77
2022/05/31 00:43:57;;;;;;;9.00;6.00;;;;;;;;;;5012669;28;20443;-77
2022/05/31 00:46:26;;;;;;;7.87;5.80;;;;;;;;;;5014175;28;20458;-79
2022/05/31 00:48:56;;;;;;;9.30;6.47;;;;;;;;;;5017050;28;20439;-76
2022/05/31 00:51:25;;;;;;;6.13;5.53;;;;;;;;;;5023171;28;20434;-78
2022/05/31 00:53:53;;;;;;;7.20;6.20;;;;;;;;;;5030364;28;20793;-76
2022/05/31 00:56:22;;;;;;;9.30;6.00;;;;;;;;;;5029944;28;20979;-77
2022/05/31 00:58:52;;;;;;;6.90;5.77;;;;;;;;;;5013074;28;20923;-76
2022/05/31 01:01:19;;;;;;;5.70;5.20;;;;;;;;;;5030986;28;20438;-80
2022/05/31 01:03:48;;;;;;;7.70;6.10;;;;;;;;;;5017722;28;21564;-76
2022/05/31 01:06:16;;;;;;;5.30;4.80;;;;;;;;;;5012436;28;20829;-76
2022/05/31 01:08:45;;;;;;;7.80;4.93;;;;;;;;;;5013905;28;20442;-79
2022/05/31 01:11:14;;;;;;;7.37;4.87;;;;;;;;;;4999800;28;20502;-78
2022/05/31 01:13:42;;;;;;;8.47;5.20;;;;;;;;;;5022907;28;20501;-77
2022/05/31 01:16:11;;;;;;;4.93;4.43;;;;;;;;;;5029941;28;20989;-77
2022/05/31 01:18:39;;;;;;;5.77;5.13;;;;;;;;;;5029961;28;20862;-76
2022/05/31 01:21:08;;;;;;;5.50;5.00;;;;;;;;;;5012233;28;20458;-74
2022/05/31 01:23:39;;;;;;;9.53;5.10;;;;;;;;;;5030621;28;20457;-77
2022/05/31 01:26:10;;;;;;;6.30;4.50;;;;;;;;;;5016694;28;20494;-77
2022/05/31 01:28:43;;;;;;;9.07;5.23;;;;;;;;;;5012048;28;20529;-77
2022/05/31 01:31:14;;;;;;;6.80;5.43;;;;;;;;;;5013891;28;20506;-75
2022/05/31 01:33:43;;;;;;;6.53;4.67;;;;;;;;;;5016484;28;20430;-79
2022/05/31 01:36:13;;;;;;;6.83;4.60;;;;;;;;;;5023783;28;20975;-76
2022/05/31 01:38:43;;;;;;;6.60;5.10;;;;;;;;;;5029414;28;20966;-76
2022/05/31 01:41:15;;;;;;;5.60;4.93;;;;;;;;;;5029514;28;20452;-75
2022/05/31 01:43:43;;;;;;;5.40;4.30;;;;;;;;;;5029673;28;20969;-77
2022/05/31 01:46:11;;;;;;;6.00;5.00;;;;;;;;;;5029273;28;20462;-76
2022/05/31 01:48:40;;;;;;;7.13;4.70;;;;;;;;;;5014469;28;20802;-76
2022/05/31 01:51:07;;;;;;;7.00;4.63;;;;;;;;;;5012110;28;20435;-76
2022/05/31 01:53:36;;;;;;;9.73;4.10;;;;;;;;;;5014358;28;20449;-77
2022/05/31 01:56:03;;;;;;;7.57;5.00;;;;;;;;;;5015949;28;20459;-77
2022/05/31 01:58:31;;;;;;;7.67;5.07;;;;;;;;;;5024222;28;20481;-74
2022/05/31 02:00:59;;;;;;;5.43;4.93;;;;;;;;;;5029400;28;20437;-76
2022/05/31 02:03:26;;;;;;;8.67;6.00;;;;;;;;;;5029320;28;20441;-76
2022/05/31 02:05:55;;;;;;;8.60;5.93;;;;;;;;;;5029606;28;20438;-77
2022/05/31 02:08:23;;;;;;;6.93;5.77;;;;;;;;;;5012256;28;20450;-77
2022/05/31 02:10:54;;;;;;;7.70;5.77;;;;;;;;;;5013230;28;20480;-76
2022/05/31 02:13:21;;;;;;;7.43;5.40;;;;;;;;;;5011423;28;20443;-76
2022/05/31 02:15:48;;;;;;;8.63;6.23;;;;;;;;;;5014024;28;20445;-76
2022/05/31 02:18:15;;;;;;;6.70;6.00;;;;;;;;;;5016160;28;20489;-79
2022/05/31 02:20:42;;;;;;;8.23;6.03;;;;;;;;;;5023645;28;20477;-77
2022/05/31 02:23:10;;;;;;;6.80;5.13;;;;;;;;;;5028500;28;20811;-75
2022/05/31 02:25:37;;;;;;;7.63;5.63;;;;;;;;;;5028558;28;20561;-76
2022/05/31 02:28:06;;;;;;;6.53;5.70;;;;;;;;;;5028740;28;20466;-77
2022/05/31 02:30:33;;;;;;;5.90;5.20;;;;;;;;;;5029006;28;20449;-78
2022/05/31 02:33:00;;;;;;;5.40;4.90;;;;;;;;;;5014346;28;20972;-77
2022/05/31 02:35:27;;;;;;;9.03;5.30;;;;;;;;;;5015354;28;20449;-79
2022/05/31 02:37:55;;;;;;;6.40;4.70;;;;;;;;;;5019131;28;20481;-77
2022/05/31 02:40:22;;;;;;;7.87;4.77;;;;;;;;;;5028610;28;20524;-77
2022/05/31 02:42:50;;;;;;;5.43;4.30;;;;;;;;;;5029054;28;20461;-75
2022/05/31 02:45:18;;;;;;;5.83;4.07;;;;;;;;;;5029232;28;20446;-78
2022/05/31 02:47:45;;;;;;;10.17;4.60;;;;;;;;;;5029538;28;20470;-76
2022/05/31 02:50:12;;;;;;;7.33;4.43;;;;;;;;;;5019628;28;20481;-73
2022/05/31 02:52:40;;;;;;;6.10;4.73;;;;;;;;;;5011120;28;20441;-76
2022/05/31 02:55:07;;;;;;;5.70;4.33;;;;;;;;;;5011937;28;20924;-78
2022/05/31 02:57:34;;;;;;;5.63;5.13;;;;;;;;;;5016874;28;20474;-77
2022/05/31 03:00:01;;;;;;;6.70;5.13;;;;;;;;;;5016904;28;20963;-79
2022/05/31 03:02:30;;;;;;;6.07;5.10;;;;;;;;;;5012700;28;20857;-76
2022/05/31 03:04:57;;;;;;;7.03;5.10;;;;;;;;;;5012690;28;21003;-79
2022/05/31 03:07:24;;;;;;;7.97;5.67;;;;;;;;;;5012384;28;20461;-76
2022/05/31 03:09:51;;;;;;;8.93;5.03;;;;;;;;;;5013676;28;20438;-78
2022/05/31 03:12:19;;;;;;;5.10;4.60;;;;;;;;;;5013228;28;20924;-76
2022/05/31 03:14:50;;;;;;;5.60;5.10;;;;;;;;;;5014983;28;20817;-76
2022/05/31 03:17:19;;;;;;;4.67;4.20;;;;;;;;;;5015322;28;20483;-77
2022/05/31 03:19:50;;;;;;;11.37;5.40;;;;;;;;;;5018621;28;20430;-74
2022/05/31 03:22:20;;;;;;;6.20;5.10;;;;;;;;;;5017065;28;20434;-76
2022/05/31 03:24:49;;;;;;;4.70;4.20;;;;;;;;;;5012361;28;20438;-76
2022/05/31 03:27:17;;;;;;;5.00;4.50;;;;;;;;;;5012278;28;21026;-77
2022/05/31 03:29:46;;;;;;;5.40;4.90;;;;;;;;;;5012441;28;20948;-77
2022/05/31 03:32:13;;;;;;;6.57;4.70;;;;;;;;;;5013163;28;20458;-78
2022/05/31 03:34:40;;;;;;;6.57;5.00;;;;;;;;;;5012703;28;20550;-76
2022/05/31 03:37:09;;;;;;;6.20;4.97;;;;;;;;;;5014444;28;20467;-77
2022/05/31 03:39:36;;;;;;;9.50;5.37;;;;;;;;;;5015142;28;20442;-76
2022/05/31 03:42:04;;;;;;;5.73;4.30;;;;;;;;;;5017948;28;20438;-77
2022/05/31 03:44:31;;;;;;;4.47;4.07;;;;;;;;;;5022958;28;20780;-74
2022/05/31 03:46:58;;;;;;;7.03;5.13;;;;;;;;;;5031424;28;20458;-75
2022/05/31 03:49:25;;;;;;;9.00;4.17;;;;;;;;;;5033245;28;20446;-74
2022/05/31 03:51:52;;;;;;;8.30;4.90;;;;;;;;;;5036791;28;20791;-76
2022/05/31 03:54:21;;;;;;;4.53;4.13;;;;;;;;;;5033185;28;20441;-75
2022/05/31 03:56:48;;;;;;;5.10;4.60;;;;;;;;;;5022012;28;20960;-75
2022/05/31 03:59:15;;;;;;;7.57;4.30;;;;;;;;;;5013874;28;20493;-76
2022/05/31 04:01:42;;;;;;;5.63;4.03;;;;;;;;;;5014701;28;20434;-77
2022/05/31 04:04:10;;;;;;;6.43;4.30;;;;;;;;;;5019428;28;20684;-79
2022/05/31 04:06:38;;;;;;;4.60;4.20;;;;;;;;;;5015945;28;20466;-76
2022/05/31 04:09:06;;;;;;;7.10;4.23;;;;;;;;;;5011315;28;20443;-77
2022/05/31 04:11:34;;;;;;;6.13;4.20;;;;;;;;;;5011608;28;20447;-75
2022/05/31 04:14:02;;;;;;;5.13;3.70;;;;;;;;;;5011461;28;20447;-75
2022/05/31 04:16:29;;;;;;;4.50;4.10;;;;;;;;;;5012019;28;20964;-77
2022/05/31 04:18:56;;;;;;;5.67;4.77;;;;;;;;;;5011735;28;20474;-77
2022/05/31 04:21:23;;;;;;;5.80;3.90;;;;;;;;;;5013378;28;20459;-77
2022/05/31 04:26:34;;;;;;;7.40;4.40;;;;;;;;;;4980106;28;20447;-75
2022/05/31 04:29:02;;;;;;;5.67;4.00;;;;;;;;;;5014639;28;20440;-74
2022/05/31 04:31:29;;;;;;;4.43;3.83;;;;;;;;;;5011329;28;20439;-79
2022/05/31 04:33:56;;;;;;;5.00;3.30;;;;;;;;;;5010830;28;20447;-76
2022/05/31 04:36:23;;;;;;;4.87;3.77;;;;;;;;;;5010960;28;20699;-75
2022/05/31 04:38:51;;;;;;;5.30;3.50;;;;;;;;;;5011346;28;20482;-74
2022/05/31 04:41:20;;;;;;;6.57;3.43;;;;;;;;;;5011648;28;20447;-76
2022/05/31 04:43:47;;;;;;;3.83;3.53;;;;;;;;;;5013033;28;20478;-75
2022/05/31 04:46:16;;;;;;;4.77;3.30;;;;;;;;;;5014279;28;21220;-78
2022/05/31 04:48:44;;;;;;;3.63;3.23;;;;;;;;;;5017305;28;20435;-78
2022/05/31 04:51:12;;;;;;;8.20;3.57;;;;;;;;;;5013961;28;20427;-77
2022/05/31 04:53:39;;;;;;;4.60;3.37;;;;;;;;;;5010086;28;20573;-76
2022/05/31 04:56:09;;;;;;;3.20;2.70;;;;;;;;;;5010097;28;20470;-77
2022/05/31 04:58:36;;;;;;;5.13;2.87;;;;;;;;;;5010729;28;20667;-75
2022/05/31 05:01:06;;;;;;;4.70;2.93;;;;;;;;;;5010731;28;20435;-77
2022/05/31 05:03:35;;;;;;;3.90;3.07;;;;;;;;;;5011652;28;20450;-77
2022/05/31 05:06:02;;;;;;;4.83;3.33;;;;;;;;;;5016451;28;20461;-78
2022/05/31 05:08:30;;;;;;;5.13;3.70;;;;;;;;;;5014815;28;20446;-76
2022/05/31 05:10:57;;;;;;;3.47;2.63;;;;;;;;;;4992998;28;20449;-76
2022/05/31 05:13:24;;;;;;;5.60;3.83;;;;;;;;;;5010358;28;20466;-74
2022/05/31 05:15:53;;;;;;;5.00;2.80;;;;;;;;;;5010737;28;20447;-74
2022/05/31 05:18:20;;;;;;;4.90;2.83;;;;;;;;;;5010803;28;21077;-76
2022/05/31 05:20:49;;;;;;;4.70;2.70;;;;;;;;;;4992538;28;20467;-75
2022/05/31 05:23:16;;;;;;;6.53;3.33;;;;;;;;;;5012454;28;20447;-76
2022/05/31 05:25:48;;;;;;;4.17;2.97;;;;;;;;;;4995477;28;20451;-76
2022/05/31 05:30:56;;;;;;;7.73;3.30;;;;;;;;;;4998387;28;20423;-75
2022/05/31 05:33:23;;;;;;;4.53;2.83;;;;;;;;;;5010297;28;20443;-74
2022/05/31 05:35:51;;;;;;;5.90;2.60;;;;;;;;;;5010035;28;20446;-75
2022/05/31 05:38:19;;;;;;;5.87;3.33;;;;;;;;;;5010291;28;20482;-74
2022/05/31 05:40:46;;;;;;;5.07;3.63;;;;;;;;;;5010495;28;20450;-80
2022/05/31 05:43:13;;;;;;;7.60;3.50;;;;;;;;;;5010433;28;20470;-76
2022/05/31 05:45:41;;;;;;;6.67;3.70;;;;;;;;;;5011663;28;20443;-80
2022/05/31 05:48:08;;;;;;;8.23;3.90;;;;;;;;;;4995727;28;20435;-76
2022/05/31 05:50:36;;;;;;;5.23;3.80;;;;;;;;;;4998576;28;20866;-78
2022/05/31 05:53:06;;;;;;;5.30;4.10;;;;;;;;;;5014001;28;20439;-77
2022/05/31 05:55:33;;;;;;;4.33;3.80;;;;;;;;;;5009404;28;20446;-76
2022/05/31 05:58:01;;;;;;;6.20;3.50;;;;;;;;;;5009330;28;20582;-75
2022/05/31 06:00:28;;;;;;;4.63;3.30;;;;;;;;;;5009804;28;20442;-75
2022/05/31 06:03:00;;;;;;;6.50;3.30;;;;;;;;;;5010232;28;20453;-74
2022/05/31 06:05:29;;;;;;;4.57;3.43;;;;;;;;;;5010283;28;20446;-76
2022/05/31 06:07:57;;;;;;;4.50;3.43;;;;;;;;;;4994205;28;20601;-77
2022/05/31 06:10:27;;;;;;;3.20;2.90;;;;;;;;;;4994279;28;20451;-78
2022/05/31 06:12:57;;;;;;;7.00;3.37;;;;;;;;;;5015783;28;20437;-78
2022/05/31 06:15:27;;;;;;;6.90;3.57;;;;;;;;;;5018247;28;20427;-76
2022/05/31 06:17:57;;;;;;;5.63;3.17;;;;;;;;;;5028568;28;20431;-78
2022/05/31 06:20:25;;;;;;;5.70;2.87;;;;;;;;;;5011385;28;20444;-79
2022/05/31 06:22:52;;;;;;;7.33;2.80;;;;;;;;;;5028984;28;20446;-78
2022/05/31 06:25:21;;;;;;;5.20;2.87;;;;;;;;;;5029612;28;20413;-81
2022/05/31 06:27:51;;;;;;;7.73;3.30;;;;;;;;;;5020913;28;20489;-80
2022/05/31 06:30:18;;;;;;;4.83;3.00;;;;;;;;;;5011707;28;20449;-76
2022/05/31 06:32:45;;;;;;;5.43;3.20;;;;;;;;;;5014620;28;20443;-78
2022/05/31 06:35:12;;;;;;;3.00;2.50;;;;;;;;;;5019682;28;20438;-80
2022/05/31 06:37:40;;;;;;;5.60;2.60;;;;;;;;;;5019990;28;20457;-80
2022/05/31 06:40:07;;;;;;;3.90;2.50;;;;;;;;;;5032494;28;20460;-78
2022/05/31 06:42:35;;;;;;;9.07;2.67;;;;;;;;;;5033004;28;20446;-76
2022/05/31 06:45:04;;;;;;;4.80;3.00;;;;;;;;;;5033468;28;20446;-82
2022/05/31 06:47:32;;;;;;;3.57;2.60;;;;;;;;;;5034500;28;20463;-77
2022/05/31 06:49:59;;;;;;;6.33;2.83;;;;;;;;;;5031907;28;20446;-76
2022/05/31 06:57:49;;;;;;;4.53;3.00;;;;;;;;;;5018268;28;21924;-79
2022/05/31 07:00:19;;;;;;;4.43;2.30;;;;;;;;;;5019514;28;20489;-77
2022/05/31 07:02:46;;;;;;;3.87;2.60;;;;;;;;;;4994937;28;20966;-79
2022/05/31 07:05:14;;;;;;;3.37;2.87;;;;;;;;;;4995297;28;20534;-79
2022/05/31 07:07:42;;;;;;;4.67;3.03;;;;;;;;;;5012782;28;20994;-75
2022/05/31 07:10:09;;;;;;;3.73;2.30;;;;;;;;;;5012936;28;20443;-76
2022/05/31 07:12:37;;;;;;;4.30;2.73;;;;;;;;;;5012995;28;20490;-76
2022/05/31 07:15:05;;;;;;;3.60;2.67;;;;;;;;;;4997453;28;20439;-79
2022/05/31 07:17:33;;;;;;;3.47;2.33;;;;;;;;;;5014448;28;20458;-78
2022/05/31 07:20:01;;;;;;;3.30;2.40;;;;;;;;;;5018233;28;20505;-82
2022/05/31 07:22:28;;;;;;;3.70;2.80;;;;;;;;;;5019322;28;20457;-76
2022/05/31 07:24:55;;;;;;;3.00;2.70;;;;;;;;;;5012368;28;20443;-75
2022/05/31 07:27:22;;;;;;;4.20;2.47;;;;;;;;;;5012000;28;20466;-76
2022/05/31 07:29:50;;;;;;;5.23;2.73;;;;;;;;;;5012237;28;20429;-75
2022/05/31 07:32:17;;;;;;;3.60;2.33;;;;;;;;;;5012611;28;20423;-78
2022/05/31 07:34:45;;;;;;;5.20;2.87;;;;;;;;;;5012223;28;20419;-81
2022/05/31 07:37:14;;;;;;;4.53;2.70;;;;;;;;;;5014166;28;20435;-76
2022/05/31 07:39:42;;;;;;;3.63;2.67;;;;;;;;;;5014202;28;21376;-81
2022/05/31 07:42:09;;;;;;;3.87;2.63;;;;;;;;;;5016283;28;20420;-76
2022/05/31 07:44:37;;;;;;;6.80;3.37;;;;;;;;;;5017957;28;20437;-75
2022/05/31 07:47:04;;;;;;;3.80;2.70;;;;;;;;;;5013693;28;20434;-74
2022/05/31 07:49:32;;;;;;;5.40;2.87;;;;;;;;;;5012053;28;20425;-73
2022/05/31 07:52:00;;;;;;;3.60;2.57;;;;;;;;;;5012506;28;20409;-73
2022/05/31 07:54:30;;;;;;;3.20;2.80;;;;;;;;;;5012577;28;20414;-75
2022/05/31 07:56:57;;;;;;;6.60;2.83;;;;;;;;;;4994491;28;20459;-72
2022/05/31 07:59:27;;;;;;;3.63;3.10;;;;;;;;;;5013380;28;20479;-72
2022/05/31 08:01:54;;;;;;;9.07;3.20;;;;;;;;;;5014016;28;20806;-74
2022/05/31 08:04:21;;;;;;;5.13;3.27;;;;;;;;;;5015192;28;20413;-74
2022/05/31 08:06:49;;;;;;;4.17;3.43;;;;;;;;;;5018052;28;20465;-76
2022/05/31 08:09:17;;;;;;;5.20;3.50;;;;;;;;;;5015008;28;20446;-75
2022/05/31 08:11:45;;;;;;;5.43;3.87;;;;;;;;;;5011482;28;20557;-73
2022/05/31 08:14:12;;;;;;;8.30;4.10;;;;;;;;;;5011740;28;20962;-75
2022/05/31 08:16:39;;;;;;;4.97;4.30;;;;;;;;;;5011750;28;20467;-76
2022/05/31 08:19:07;;;;;;;3.73;3.30;;;;;;;;;;5012259;28;20494;-73
2022/05/31 08:21:34;;;;;;;6.10;3.30;;;;;;;;;;5012301;28;21210;-73
2022/05/31 08:24:03;;;;;;;10.30;4.03;;;;;;;;;;5013571;28;20555;-76
2022/05/31 08:26:32;;;;;;;6.57;3.57;;;;;;;;;;5013625;28;20476;-74
2022/05/31 08:28:59;;;;;;;4.03;3.20;;;;;;;;;;5017830;28;20441;-75
2022/05/31 08:31:28;;;;;;;3.60;3.10;;;;;;;;;;5017910;28;20448;-75
2022/05/31 08:33:55;;;;;;;4.73;3.40;;;;;;;;;;5010905;28;20468;-74
2022/05/31 08:36:22;;;;;;;5.73;3.30;;;;;;;;;;5011040;28;20468;-78
2022/05/31 08:38:49;;;;;;;7.03;3.93;;;;;;;;;;5011447;28;20492;-74
2022/05/31 08:41:25;;;;;;;8.60;2.90;;;;;;;;;;5011604;28;20942;-75
2022/05/31 08:44:00;;;;;;;5.53;3.13;;;;;;;;;;5011510;28;20476;-72
2022/05/31 08:46:32;;;;;;;4.37;3.93;;;;;;;;;;4995629;28;20952;-73
2022/05/31 08:49:00;;;;;;;5.60;3.70;;;;;;;;;;5012679;28;20518;-75
2022/05/31 08:57:05;;;;;;;4.93;3.23;;;;;;;;;;5028621;28;20799;-73
2022/05/31 08:59:36;;;;;;;5.73;3.53;;;;;;;;;;5030107;28;20484;-74
2022/05/31 09:02:05;;;;;;;3.67;3.10;;;;;;;;;;5030549;28;20793;-74
2022/05/31 09:04:36;;;;;;;7.80;3.93;;;;;;;;;;5030673;28;20498;-75
2022/05/31 09:07:06;;;;;;;5.50;3.70;;;;;;;;;;5000538;28;20467;-74
2022/05/31 09:09:35;;;;;;;6.97;3.80;;;;;;;;;;5012443;28;20508;-74
2022/05/31 09:12:05;;;;;;;5.40;3.13;;;;;;;;;;4996110;28;20471;-75
2022/05/31 09:14:40;;;;;;;5.00;3.67;;;;;;;;;;5016742;28;20450;-72
2022/05/31 09:17:23;;;;;;;6.20;3.33;;;;;;;;;;5117288;27;21124;-76
2022/05/31 09:19:55;;;;;;;4.40;3.70;;;;;;;;;;5105469;28;20428;-76
2022/05/31 09:22:22;;;;;;;5.97;3.03;;;;;;;;;;5106515;28;20432;-74
2022/05/31 09:24:49;;;;;;;5.10;3.27;;;;;;;;;;5107143;28;20449;-74
2022/05/31 09:27:20;;;;;;;5.57;3.23;;;;;;;;;;5107183;28;20455;-74
2022/05/31 09:29:53;;;;;;;5.73;3.40;;;;;;;;;;5107732;28;20453;-74
2022/05/31 09:32:26;;;;;;;4.93;3.03;;;;;;;;;;5113310;28;20443;-73
2022/05/31 09:35:01;;;;;;;5.70;3.00;;;;;;;;;;5115007;28;20513;-74
2022/05/31 09:37:40;;;;;;;4.10;3.13;;;;;;;;;;5126507;27;20454;-74
2022/05/31 09:40:13;;;;;;;5.73;3.27;;;;;;;;;;5127179;28;20645;-75
2022/05/31 09:42:42;;;;;;;3.30;3.10;;;;;;;;;;5127303;28;20445;-75
2022/05/31 09:45:11;;;;;;;6.10;3.73;;;;;;;;;;5127384;28;20942;-75
2022/05/31 09:47:40;;;;;;;6.17;3.23;;;;;;;;;;5115568;27;20480;-74
2022/05/31 09:50:08;;;;;;;3.90;3.40;;;;;;;;;;5108795;28;20447;-76
2022/05/31 09:52:38;;;;;;;5.80;3.60;;;;;;;;;;5108926;28;21133;-74
2022/05/31 09:57:52;;;;;;;4.90;3.47;;;;;;;;;;5116549;27;20445;-74
2022/05/31 10:00:21;;;;;;;4.17;3.53;;;;;;;;;;5126559;28;20443;-75
2022/05/31 10:02:59;;;;;;;6.87;4.10;;;;;;;;;;5126715;28;20412;-74
2022/05/31 10:05:27;;;;;;;4.53;4.13;;;;;;;;;;5125766;28;20449;-74
2022/05/31 10:07:54;;;;;;;8.00;4.87;;;;;;;;;;5127185;27;20471;-76
2022/05/31 10:10:27;;;;;;;6.80;4.87;;;;;;;;;;5114080;28;20446;-76
2022/05/31 10:12:55;;;;;;;4.90;4.07;;;;;;;;;;5108372;28;20413;-75
2022/05/31 10:15:37;;;;;;;4.97;4.17;;;;;;;;;;5113489;27;20465;-74
2022/05/31 10:18:08;;;;;;;5.33;4.27;;;;;;;;;;5132053;27;20457;-75
2022/05/31 10:20:35;;;;;;;6.13;3.80;;;;;;;;;;5138263;27;20435;-74
2022/05/31 10:23:04;;;;;;;4.00;3.60;;;;;;;;;;5146892;27;20436;-75
2022/05/31 10:25:35;;;;;;;5.70;2.93;;;;;;;;;;5128554;27;20447;-73
2022/05/31 10:28:03;;;;;;;5.90;3.63;;;;;;;;;;5136815;27;20462;-75
2022/05/31 10:30:31;;;;;;;5.17;3.70;;;;;;;;;;5115466;27;20520;-75
2022/05/31 10:33:00;;;;;;;5.00;3.90;;;;;;;;;;5101889;28;20462;-74
2022/05/31 10:35:30;;;;;;;6.00;3.70;;;;;;;;;;5114355;28;20445;-75
2022/05/31 10:38:00;;;;;;;4.87;4.20;;;;;;;;;;5115259;27;20819;-73
2022/05/31 10:40:33;;;;;;;7.17;4.10;;;;;;;;;;5119160;27;20435;-75
2022/05/31 10:43:05;;;;;;;4.13;3.47;;;;;;;;;;5116586;27;20433;-76
2022/05/31 10:45:32;;;;;;;4.00;3.03;;;;;;;;;;5112061;28;20438;-75
2022/05/31 10:48:00;;;;;;;4.80;2.73;;;;;;;;;;5111697;28;20465;-75
2022/05/31 10:50:33;;;;;;;4.70;3.07;;;;;;;;;;5112509;28;20457;-76
2022/05/31 10:53:06;;;;;;;4.80;3.40;;;;;;;;;;5112715;28;20441;-75
2022/05/31 10:55:37;;;;;;;4.90;3.37;;;;;;;;;;5113442;28;20454;-81
2022/05/31 10:58:13;;;;;;;7.43;4.07;;;;;;;;;;5113694;28;20523;-76
2022/05/31 11:00:42;;;;;;;3.70;3.07;;;;;;;;;;5115040;27;20430;-77
2022/05/31 11:03:24;;;;;;;4.90;2.80;;;;;;;;;;5118733;27;20433;-76
2022/05/31 11:05:59;;;;;;;3.30;2.80;;;;;;;;;;5099838;28;20441;-76
2022/05/31 11:14:12;;;;;;;3.73;3.03;;;;;;;;;;5095880;28;20914;-74
2022/05/31 11:16:44;;;;;;;6.00;2.83;;;;;;;;;;5111270;28;20482;-73
2022/05/31 11:19:23;;;;;;;3.97;3.10;;;;;;;;;;5093195;28;20439;-74
2022/05/31 11:21:55;;;;;;;3.53;3.07;;;;;;;;;;5093513;28;20797;-74
2022/05/31 11:24:32;;;;;;;3.27;2.80;;;;;;;;;;5106370;27;20426;-73
2022/05/31 11:27:05;;;;;;;5.67;2.57;;;;;;;;;;5117900;27;20544;-76
2022/05/31 11:29:40;;;;;;;3.83;3.03;;;;;;;;;;5127971;27;20429;-76
2022/05/31 11:32:14;;;;;;;5.20;3.23;;;;;;;;;;5132017;27;20444;-74
2022/05/31 11:34:51;;;;;;;4.93;2.90;;;;;;;;;;5113594;27;20930;-78
2022/05/31 11:37:28;;;;;;;2.80;2.50;;;;;;;;;;5132503;27;20489;-78
2022/05/31 11:40:03;;;;;;;3.40;2.87;;;;;;;;;;5127516;27;20453;-75
2022/05/31 11:42:41;;;;;;;3.00;2.60;;;;;;;;;;5113624;28;20533;-76
2022/05/31 11:45:11;;;;;;;4.37;3.10;;;;;;;;;;5112631;28;20434;-74
2022/05/31 11:47:48;;;;;;;4.33;3.33;;;;;;;;;;5132164;27;20481;-76
2022/05/31 11:50:17;;;;;;;4.13;2.97;;;;;;;;;;5117734;27;20429;-74
2022/05/31 11:52:50;;;;;;;5.73;3.10;;;;;;;;;;5111534;27;20441;-77
2022/05/31 11:55:29;;;;;;;3.90;3.20;;;;;;;;;;5110878;28;20445;-77
2022/05/31 11:58:09;;;;;;;4.13;3.27;;;;;;;;;;5093735;28;20486;-76
2022/05/31 12:00:40;;;;;;;3.93;2.60;;;;;;;;;;5111079;28;20422;-75
2022/05/31 12:03:11;;;;;;;5.00;2.60;;;;;;;;;;5111199;28;20836;-75
2022/05/31 12:05:40;;;;;;;4.37;3.73;;;;;;;;;;5128551;27;20442;-75
2022/05/31 12:08:11;;;;;;;4.40;3.40;;;;;;;;;;5112813;28;20446;-76
2022/05/31 12:10:41;;;;;;;4.57;2.80;;;;;;;;;;5116182;27;20438;-75
2022/05/31 12:13:10;;;;;;;3.50;2.40;;;;;;;;;;5099093;27;20433;-74
2022/05/31 12:15:40;;;;;;;2.60;2.40;;;;;;;;;;5128542;27;20813;-74
2022/05/31 12:18:14;;;;;;;2.73;2.53;;;;;;;;;;5130918;27;20430;-75
2022/05/31 12:20:43;;;;;;;3.00;2.70;;;;;;;;;;5130756;27;20437;-75
2022/05/31 12:23:16;;;;;;;3.30;2.77;;;;;;;;;;5131568;27;20438;-75
2022/05/31 12:25:46;;;;;;;7.07;3.60;;;;;;;;;;5126290;27;20442;-74
2022/05/31 12:28:18;;;;;;;4.03;3.17;;;;;;;;;;5112623;28;20782;-74
2022/05/31 12:30:52;;;;;;;4.07;2.63;;;;;;;;;;5112596;28;20435;-74
2022/05/31 12:33:28;;;;;;;2.97;2.67;;;;;;;;;;5131655;27;20519;-75
2022/05/31 12:35:57;;;;;;;3.80;3.27;;;;;;;;;;5098908;27;20433;-76
2022/05/31 12:38:25;;;;;;;5.87;3.17;;;;;;;;;;5109777;28;20518;-75
2022/05/31 12:40:53;;;;;;;3.80;2.43;;;;;;;;;;5110093;28;20438;-76
2022/05/31 12:43:35;;;;;;;3.03;2.20;;;;;;;;;;5091974;28;20792;-75
2022/05/31 12:46:20;;;;;;;5.03;2.40;;;;;;;;;;5094424;28;21217;-75
2022/05/31 12:48:53;;;;;;;2.40;2.20;;;;;;;;;;5092451;28;20809;-75
2022/05/31 12:51:21;;;;;;;3.47;2.40;;;;;;;;;;5112200;28;20453;-74
2022/05/31 12:53:59;;;;;;;7.30;2.40;;;;;;;;;;5112138;28;20915;-75
2022/05/31 12:56:41;;;;;;;2.80;2.00;;;;;;;;;;5132146;27;20482;-76
2022/05/31 12:59:09;;;;;;;2.53;2.00;;;;;;;;;;5099021;28;20452;-75
2022/05/31 13:01:38;;;;;;;2.63;1.90;;;;;;;;;;5109701;28;20553;-76
2022/05/31 13:04:08;;;;;;;2.80;1.77;;;;;;;;;;5091589;28;20434;-80
2022/05/31 13:06:37;;;;;;;3.07;2.10;;;;;;;;;;5091901;28;20462;-76
2022/05/31 13:09:08;;;;;;;3.60;2.00;;;;;;;;;;5110163;28;20450;-76
2022/05/31 13:19:57;;;;;;;2.50;2.10;;;;;;;;;;5099294;28;20744;-76
2022/05/31 13:22:24;;;;;;;3.20;2.10;;;;;;;;;;5122411;28;20444;-80
2022/05/31 13:25:01;;;;;;;2.43;2.07;;;;;;;;;;5129830;28;20434;-77
2022/05/31 13:27:29;;;;;;;2.30;2.10;;;;;;;;;;5112455;28;20453;-79
2022/05/31 13:30:06;;;;;;;2.50;1.77;;;;;;;;;;5112151;28;20930;-79
2022/05/31 13:32:34;;;;;;;3.50;1.83;;;;;;;;;;5112516;28;20441;-79
2022/05/31 13:35:06;;;;;;;6.43;2.47;;;;;;;;;;5114395;28;20454;-75
2022/05/31 13:37:33;;;;;;;3.20;2.10;;;;;;;;;;5111618;28;20486;-80
2022/05/31 13:40:03;;;;;;;6.33;2.20;;;;;;;;;;5112995;28;20430;-75
2022/05/31 13:42:33;;;;;;;5.03;2.70;;;;;;;;;;5115987;28;20943;-76
2022/05/31 13:45:04;;;;;;;3.93;2.43;;;;;;;;;;5112730;28;20442;-75
2022/05/31 13:47:31;;;;;;;5.57;3.13;;;;;;;;;;5109421;28;20466;-76
2022/05/31 13:50:05;;;;;;;3.90;2.90;;;;;;;;;;5109067;28;20919;-79
2022/05/31 13:52:32;;;;;;;3.47;2.63;;;;;;;;;;5091664;28;20437;-75
2022/05/31 13:55:09;;;;;;;2.93;2.30;;;;;;;;;;5109910;28;20446;-76
2022/05/31 13:57:36;;;;;;;6.13;2.67;;;;;;;;;;5092281;28;20569;-76
2022/05/31 14:00:07;;;;;;;4.03;2.33;;;;;;;;;;5111622;28;20442;-76
2022/05/31 14:02:49;;;;;;;3.10;2.70;;;;;;;;;;5129779;27;20979;-76
2022/05/31 14:05:20;;;;;;;5.70;2.10;;;;;;;;;;5119788;27;20842;-75
2022/05/31 14:07:48;;;;;;;4.90;2.20;;;;;;;;;;5097445;28;20450;-77
2022/05/31 14:10:19;;;;;;;3.50;2.73;;;;;;;;;;5113230;28;21008;-79
2022/05/31 14:12:46;;;;;;;3.10;2.07;;;;;;;;;;5112777;28;20441;-76
2022/05/31 14:15:22;;;;;;;2.60;1.87;;;;;;;;;;5112954;28;20494;-77
2022/05/31 14:17:49;;;;;;;5.50;2.30;;;;;;;;;;5113435;28;20879;-77
2022/05/31 14:20:20;;;;;;;3.07;2.23;;;;;;;;;;5114127;28;20935;-75
2022/05/31 14:22:47;;;;;;;3.90;2.63;;;;;;;;;;5130833;27;20442;-78
2022/05/31 14:25:22;;;;;;;3.70;2.10;;;;;;;;;;5115982;27;20444;-78
2022/05/31 14:27:51;;;;;;;4.27;2.30;;;;;;;;;;5119268;27;20454;-76
2022/05/31 14:30:30;;;;;;;4.50;1.80;;;;;;;;;;5115943;27;20446;-79
2022/05/31 14:33:01;;;;;;;3.30;1.90;;;;;;;;;;5094122;28;20935;-76
2022/05/31 14:35:31;;;;;;;3.00;1.83;;;;;;;;;;5112420;28;20474;-81
2022/05/31 14:37:58;;;;;;;3.03;2.73;;;;;;;;;;5112496;28;20513;-77
2022/05/31 14:40:28;;;;;;;1.97;1.77;;;;;;;;;;5095002;28;20928;-75
2022/05/31 14:42:59;;;;;;;2.27;2.07;;;;;;;;;;5095615;28;20454;-76
2022/05/31 14:45:28;;;;;;;3.67;1.83;;;;;;;;;;5130061;27;20923;-77
2022/05/31 14:47:55;;;;;;;4.13;2.10;;;;;;;;;;5115971;27;20450;-76
2022/05/31 14:50:27;;;;;;;2.40;2.20;;;;;;;;;;5119409;27;20430;-77
2022/05/31 14:52:56;;;;;;;2.23;1.80;;;;;;;;;;5097312;28;20481;-75
2022/05/31 14:55:33;;;;;;;3.03;1.90;;;;;;;;;;5111935;28;20497;-76
2022/05/31 15:00:46;;;;;;;4.40;2.20;;;;;;;;;;5095334;28;20430;-76
2022/05/31 15:03:15;;;;;;;3.80;2.40;;;;;;;;;;5094017;28;20489;-75
2022/05/31 15:05:42;;;;;;;2.50;2.10;;;;;;;;;;5113286;28;20450;-74
2022/05/31 15:08:10;;;;;;;2.40;1.87;;;;;;;;;;5114039;28;20438;-75
2022/05/31 15:10:38;;;;;;;3.00;1.93;;;;;;;;;;5115277;27;20500;-78
2022/05/31 15:21:21;;;;;;;2.10;1.87;;;;;;;;;;5110457;28;20457;-76
2022/05/31 15:23:49;;;;;;;4.37;2.20;;;;;;;;;;5111860;28;20897;-76
2022/05/31 15:26:16;;;;;;;3.10;2.50;;;;;;;;;;5111736;28;20462;-77
2022/05/31 15:28:45;;;;;;;4.50;2.20;;;;;;;;;;5112716;28;20867;-76
2022/05/31 15:31:27;;;;;;;4.33;2.23;;;;;;;;;;5113483;28;20442;-77
2022/05/31 15:33:55;;;;;;;3.40;2.43;;;;;;;;;;5115666;27;20444;-77
2022/05/31 15:36:22;;;;;;;3.00;2.00;;;;;;;;;;5117634;27;20445;-76
2022/05/31 15:38:49;;;;;;;3.40;2.30;;;;;;;;;;5125899;27;20481;-77
2022/05/31 15:41:16;;;;;;;3.40;2.27;;;;;;;;;;5131749;27;20958;-75